sensor_id;sensor_type;location;lat;lon;timestamp;pressure;altitude;pressure_sealevel;temperature;humidity
9969;BME280;5025;48.890;9.278;2022-09-09T00:04:28;98389.81;;;17.10;61.39
9969;BME280;5025;48.890;9.278;2022-09-09T00:07:14;98386.00;;;17.11;61.24
9969;BME280;5025;48.890;9.278;2022-09-09T00:15:40;98389.31;;;17.02;61.66
9969;BME280;5025;48.890;9.278;2022-09-09T00:18:12;98387.16;;;16.99;61.78
9969;BME280;5025;48.890;9.278;2022-09-09T00:20:49;98382.78;;;16.98;61.98
9969;BME280;5025;48.890;9.278;2022-09-09T00:28:26;98369.47;;;16.92;61.83
9969;BME280;5025;48.890;9.278;2022-09-09T00:30:52;98376.00;;;16.91;62.10
9969;BME280;5025;48.890;9.278;2022-09-09T00:33:20;98374.66;;;16.88;62.11
9969;BME280;5025;48.890;9.278;2022-09-09T00:35:57;98367.00;;;16.85;62.22
9969;BME280;5025;48.890;9.278;2022-09-09T00:38:26;98375.44;;;16.83;62.44
9969;BME280;5025;48.890;9.278;2022-09-09T00:41:18;98374.66;;;16.88;62.26
9969;BME280;5025;48.890;9.278;2022-09-09T00:44:13;98373.03;;;16.87;62.34
9969;BME280;5025;48.890;9.278;2022-09-09T00:46:53;98374.13;;;16.86;62.50
9969;BME280;5025;48.890;9.278;2022-09-09T00:52:26;98368.66;;;16.86;62.51
9969;BME280;5025;48.890;9.278;2022-09-09T00:57:29;98368.91;;;16.90;62.33
9969;BME280;5025;48.890;9.278;2022-09-09T01:05:34;98383.38;;;16.90;62.30
9969;BME280;5025;48.890;9.278;2022-09-09T01:08:04;98385.84;;;16.87;62.43
9969;BME280;5025;48.890;9.278;2022-09-09T01:10:49;98379.00;;;16.84;62.50
9969;BME280;5025;48.890;9.278;2022-09-09T01:13:23;98380.63;;;16.85;62.67
9969;BME280;5025;48.890;9.278;2022-09-09T01:15:50;98371.09;;;16.88;62.78
9969;BME280;5025;48.890;9.278;2022-09-09T01:18:20;98375.19;;;16.90;62.83
9969;BME280;5025;48.890;9.278;2022-09-09T01:24:38;98363.16;;;16.96;62.71
9969;BME280;5025;48.890;9.278;2022-09-09T01:27:06;98370.22;;;16.97;62.78
9969;BME280;5025;48.890;9.278;2022-09-09T01:29:33;98369.66;;;17.00;62.56
9969;BME280;5025;48.890;9.278;2022-09-09T01:32:01;98371.84;;;17.03;62.69
9969;BME280;5025;48.890;9.278;2022-09-09T01:34:30;98378.66;;;17.06;62.28
9969;BME280;5025;48.890;9.278;2022-09-09T01:37:03;98383.81;;;17.08;62.13
9969;BME280;5025;48.890;9.278;2022-09-09T01:39:30;98392.00;;;17.08;61.93
9969;BME280;5025;48.890;9.278;2022-09-09T01:41:56;98387.91;;;17.10;61.92
9969;BME280;5025;48.890;9.278;2022-09-09T01:44:23;98387.91;;;17.10;61.82
9969;BME280;5025;48.890;9.278;2022-09-09T01:46:49;98390.66;;;17.10;61.81
9969;BME280;5025;48.890;9.278;2022-09-09T01:49:15;98392.00;;;17.08;61.68
9969;BME280;5025;48.890;9.278;2022-09-09T01:51:42;98389.56;;;17.06;61.54
9969;BME280;5025;48.890;9.278;2022-09-09T01:54:08;98386.56;;;17.08;61.37
9969;BME280;5025;48.890;9.278;2022-09-09T01:56:50;98393.38;;;17.10;61.14
9969;BME280;5025;48.890;9.278;2022-09-09T02:02:11;98385.44;;;17.14;61.11
9969;BME280;5025;48.890;9.278;2022-09-09T02:07:09;98378.84;;;17.15;60.85
9969;BME280;5025;48.890;9.278;2022-09-09T02:09:40;98382.66;;;17.19;60.73
9969;BME280;5025;48.890;9.278;2022-09-09T02:12:13;98375.00;;;17.21;60.50
9969;BME280;5025;48.890;9.278;2022-09-09T02:14:42;98374.19;;;17.20;60.31
9969;BME280;5025;48.890;9.278;2022-09-09T02:17:14;98362.72;;;17.24;60.13
9969;BME280;5025;48.890;9.278;2022-09-09T02:19:46;98359.69;;;17.25;60.20
9969;BME280;5025;48.890;9.278;2022-09-09T02:22:18;98357.50;;;17.27;59.91
9969;BME280;5025;48.890;9.278;2022-09-09T02:24:45;98376.59;;;17.27;59.95
9969;BME280;5025;48.890;9.278;2022-09-09T02:27:12;98381.56;;;17.20;59.91
9969;BME280;5025;48.890;9.278;2022-09-09T02:29:42;98387.94;;;17.05;60.46
9969;BME280;5025;48.890;9.278;2022-09-09T02:32:21;98396.97;;;16.95;60.75
9969;BME280;5025;48.890;9.278;2022-09-09T02:34:49;98397.56;;;16.87;61.21
9969;BME280;5025;48.890;9.278;2022-09-09T02:37:22;98388.28;;;16.83;61.60
9969;BME280;5025;48.890;9.278;2022-09-09T02:39:50;98385.56;;;16.83;61.83
9969;BME280;5025;48.890;9.278;2022-09-09T02:42:16;98397.53;;;16.82;61.96
9969;BME280;5025;48.890;9.278;2022-09-09T02:44:42;98384.47;;;16.79;62.06
9969;BME280;5025;48.890;9.278;2022-09-09T02:47:20;98390.19;;;16.77;62.14
9969;BME280;5025;48.890;9.278;2022-09-09T02:52:42;98387.75;;;16.76;62.47
9969;BME280;5025;48.890;9.278;2022-09-09T02:55:27;98395.13;;;16.75;62.74
9969;BME280;5025;48.890;9.278;2022-09-09T02:57:55;98395.94;;;16.76;62.42
9969;BME280;5025;48.890;9.278;2022-09-09T03:00:28;98386.66;;;16.77;62.54
9969;BME280;5025;48.890;9.278;2022-09-09T03:02:54;98382.84;;;16.78;62.15
9969;BME280;5025;48.890;9.278;2022-09-09T03:05:20;98365.38;;;16.79;62.28
9969;BME280;5025;48.890;9.278;2022-09-09T03:07:46;98366.50;;;16.78;62.39
9969;BME280;5025;48.890;9.278;2022-09-09T03:10:11;98357.75;;;16.76;62.18
9969;BME280;5025;48.890;9.278;2022-09-09T03:12:36;98353.41;;;16.75;62.24
9969;BME280;5025;48.890;9.278;2022-09-09T03:15:02;98352.06;;;16.72;62.22
9969;BME280;5025;48.890;9.278;2022-09-09T03:17:27;98357.50;;;16.72;62.17
9969;BME280;5025;48.890;9.278;2022-09-09T03:19:53;98352.34;;;16.71;62.07
9969;BME280;5025;48.890;9.278;2022-09-09T03:22:20;98357.78;;;16.71;61.98
9969;BME280;5025;48.890;9.278;2022-09-09T03:24:46;98361.88;;;16.68;61.98
9969;BME280;5025;48.890;9.278;2022-09-09T03:27:12;98357.00;;;16.65;62.07
9969;BME280;5025;48.890;9.278;2022-09-09T03:29:39;98364.63;;;16.63;62.15
9969;BME280;5025;48.890;9.278;2022-09-09T03:32:05;98372.56;;;16.59;62.13
9969;BME280;5025;48.890;9.278;2022-09-09T03:34:30;98369.88;;;16.49;62.22
9969;BME280;5025;48.890;9.278;2022-09-09T03:36:55;98365.53;;;16.43;62.33
9969;BME280;5025;48.890;9.278;2022-09-09T03:39:21;98362.28;;;16.36;62.35
9969;BME280;5025;48.890;9.278;2022-09-09T03:41:46;98364.19;;;16.35;62.51
9969;BME280;5025;48.890;9.278;2022-09-09T03:44:13;98369.63;;;16.35;62.48
9969;BME280;5025;48.890;9.278;2022-09-09T03:46:38;98365.56;;;16.33;62.58
9969;BME280;5025;48.890;9.278;2022-09-09T03:49:04;98384.13;;;16.25;62.41
9969;BME280;5025;48.890;9.278;2022-09-09T03:51:29;98383.03;;;16.11;63.00
9969;BME280;5025;48.890;9.278;2022-09-09T03:53:55;98388.22;;;16.07;63.35
9969;BME280;5025;48.890;9.278;2022-09-09T03:56:21;98379.53;;;16.05;63.28
9969;BME280;5025;48.890;9.278;2022-09-09T03:58:47;98387.41;;;16.07;63.40
9969;BME280;5025;48.890;9.278;2022-09-09T04:01:13;98385.22;;;16.09;63.35
9969;BME280;5025;48.890;9.278;2022-09-09T04:03:39;98386.88;;;16.10;63.40
9969;BME280;5025;48.890;9.278;2022-09-09T04:06:08;98390.41;;;16.10;63.44
9969;BME280;5025;48.890;9.278;2022-09-09T04:08:34;98381.94;;;16.12;63.48
9969;BME280;5025;48.890;9.278;2022-09-09T04:11:01;98374.84;;;16.11;63.56
9969;BME280;5025;48.890;9.278;2022-09-09T04:13:30;98377.59;;;16.11;63.56
9969;BME280;5025;48.890;9.278;2022-09-09T04:15:58;98377.31;;;16.12;63.64
9969;BME280;5025;48.890;9.278;2022-09-09T04:18:24;98378.94;;;16.13;63.56
9969;BME280;5025;48.890;9.278;2022-09-09T04:20:52;98382.75;;;16.12;63.68
9969;BME280;5025;48.890;9.278;2022-09-09T04:23:19;98374.06;;;16.10;63.71
9969;BME280;5025;48.890;9.278;2022-09-09T04:25:50;98384.16;;;16.10;63.59
9969;BME280;5025;48.890;9.278;2022-09-09T04:28:17;98377.59;;;16.11;63.68
9969;BME280;5025;48.890;9.278;2022-09-09T04:30:44;98381.41;;;16.15;63.57
9969;BME280;5025;48.890;9.278;2022-09-09T04:33:10;98385.50;;;16.18;63.49
9969;BME280;5025;48.890;9.278;2022-09-09T04:35:37;98390.09;;;16.17;63.51
9969;BME280;5025;48.890;9.278;2022-09-09T04:38:04;98392.81;;;16.17;63.41
9969;BME280;5025;48.890;9.278;2022-09-09T04:40:31;98399.66;;;16.15;63.54
9969;BME280;5025;48.890;9.278;2022-09-09T04:43:01;98393.66;;;16.12;63.63
9969;BME280;5025;48.890;9.278;2022-09-09T04:45:30;98390.66;;;16.14;63.68
9969;BME280;5025;48.890;9.278;2022-09-09T04:47:56;98396.09;;;16.14;63.63
9969;BME280;5025;48.890;9.278;2022-09-09T04:50:22;98401.00;;;16.12;63.65
9969;BME280;5025;48.890;9.278;2022-09-09T04:52:47;98398.03;;;16.13;63.61
9969;BME280;5025;48.890;9.278;2022-09-09T04:55:13;98403.47;;;16.13;63.76
9969;BME280;5025;48.890;9.278;2022-09-09T04:57:40;98399.38;;;16.16;63.75
9969;BME280;5025;48.890;9.278;2022-09-09T05:00:05;98394.75;;;16.17;63.67
9969;BME280;5025;48.890;9.278;2022-09-09T05:02:31;98404.56;;;16.18;63.74
9969;BME280;5025;48.890;9.278;2022-09-09T05:04:57;98412.19;;;16.21;63.79
9969;BME280;5025;48.890;9.278;2022-09-09T05:07:23;98411.06;;;16.22;63.76
9969;BME280;5025;48.890;9.278;2022-09-09T05:09:48;98410.25;;;16.21;63.83
9969;BME280;5025;48.890;9.278;2022-09-09T05:12:15;98417.88;;;16.24;63.60
9969;BME280;5025;48.890;9.278;2022-09-09T05:14:44;98415.69;;;16.26;63.64
9969;BME280;5025;48.890;9.278;2022-09-09T05:17:10;98425.25;;;16.29;63.41
9969;BME280;5025;48.890;9.278;2022-09-09T05:19:35;98423.31;;;16.29;63.53
9969;BME280;5025;48.890;9.278;2022-09-09T05:22:01;98426.03;;;16.29;63.54
9969;BME280;5025;48.890;9.278;2022-09-09T05:24:27;98423.59;;;16.28;63.51
9969;BME280;5025;48.890;9.278;2022-09-09T05:26:52;98424.44;;;16.28;63.40
9969;BME280;5025;48.890;9.278;2022-09-09T05:29:18;98427.69;;;16.30;63.58
9969;BME280;5025;48.890;9.278;2022-09-09T05:31:45;98423.88;;;16.31;63.54
9969;BME280;5025;48.890;9.278;2022-09-09T05:34:10;98422.50;;;16.34;63.66
9969;BME280;5025;48.890;9.278;2022-09-09T05:36:36;98430.41;;;16.36;63.56
9969;BME280;5025;48.890;9.278;2022-09-09T05:39:02;98427.66;;;16.36;63.48
9969;BME280;5025;48.890;9.278;2022-09-09T05:41:27;98426.03;;;16.40;63.47
9969;BME280;5025;48.890;9.278;2022-09-09T05:43:54;98416.78;;;16.41;63.51
9969;BME280;5025;48.890;9.278;2022-09-09T05:46:21;98418.41;;;16.42;63.50
9969;BME280;5025;48.890;9.278;2022-09-09T05:48:47;98426.84;;;16.40;63.59
9969;BME280;5025;48.890;9.278;2022-09-09T05:51:17;98432.28;;;16.40;63.51
9969;BME280;5025;48.890;9.278;2022-09-09T05:53:44;98431.75;;;16.38;63.66
9969;BME280;5025;48.890;9.278;2022-09-09T05:56:24;98430.94;;;16.43;63.60
9969;BME280;5025;48.890;9.278;2022-09-09T05:58:54;98436.38;;;16.48;63.44
9969;BME280;5025;48.890;9.278;2022-09-09T06:01:25;98433.38;;;16.49;63.33
9969;BME280;5025;48.890;9.278;2022-09-09T06:03:52;98434.47;;;16.54;63.13
9969;BME280;5025;48.890;9.278;2022-09-09T06:06:19;98436.91;;;16.55;63.15
9969;BME280;5025;48.890;9.278;2022-09-09T06:08:54;98440.72;;;16.59;63.20
9969;BME280;5025;48.890;9.278;2022-09-09T06:11:22;98446.16;;;16.64;63.06
9969;BME280;5025;48.890;9.278;2022-09-09T06:13:48;98444.78;;;16.67;62.98
9969;BME280;5025;48.890;9.278;2022-09-09T06:16:17;98444.50;;;16.69;62.96
9969;BME280;5025;48.890;9.278;2022-09-09T06:18:43;98439.31;;;16.72;62.87
9969;BME280;5025;48.890;9.278;2022-09-09T06:21:11;98439.00;;;16.79;62.78
9969;BME280;5025;48.890;9.278;2022-09-09T06:23:39;98431.38;;;16.81;62.91
9969;BME280;5025;48.890;9.278;2022-09-09T06:26:19;98430.28;;;16.82;62.81
9969;BME280;5025;48.890;9.278;2022-09-09T06:28:48;98436.00;;;16.85;62.87
9969;BME280;5025;48.890;9.278;2022-09-09T06:31:16;98445.84;;;16.87;62.84
9969;BME280;5025;48.890;9.278;2022-09-09T06:33:50;98442.03;;;16.88;62.99
9969;BME280;5025;48.890;9.278;2022-09-09T06:36:26;98446.66;;;16.87;63.08
9969;BME280;5025;48.890;9.278;2022-09-09T06:38:52;98445.84;;;16.92;62.95
9969;BME280;5025;48.890;9.278;2022-09-09T06:41:19;98450.72;;;16.95;63.00
9969;BME280;5025;48.890;9.278;2022-09-09T06:43:46;98445.25;;;17.00;62.85
9969;BME280;5025;48.890;9.278;2022-09-09T06:48:41;98446.84;;;17.06;62.89
9969;BME280;5025;48.890;9.278;2022-09-09T06:51:10;98446.56;;;17.08;62.72
9969;BME280;5025;48.890;9.278;2022-09-09T06:53:37;98453.13;;;17.12;62.80
9969;BME280;5025;48.890;9.278;2022-09-09T06:58:43;98457.44;;;17.18;62.61
9969;BME280;5025;48.890;9.278;2022-09-09T07:01:14;98455.25;;;17.20;62.61
9969;BME280;5025;48.890;9.278;2022-09-09T07:03:41;98450.84;;;17.24;62.52
9969;BME280;5025;48.890;9.278;2022-09-09T07:06:14;98448.09;;;17.29;62.50
9969;BME280;5025;48.890;9.278;2022-09-09T07:08:40;98448.06;;;17.34;62.46
9969;BME280;5025;48.890;9.278;2022-09-09T07:11:07;98444.78;;;17.37;62.27
9969;BME280;5025;48.890;9.278;2022-09-09T07:13:33;98437.13;;;17.39;62.26
9969;BME280;5025;48.890;9.278;2022-09-09T07:16:06;98440.41;;;17.42;61.97
9969;BME280;5025;48.890;9.278;2022-09-09T07:18:31;98449.13;;;17.44;61.92
9969;BME280;5025;48.890;9.278;2022-09-09T07:20:58;98446.91;;;17.46;61.90
9969;BME280;5025;48.890;9.278;2022-09-09T07:23:24;98444.16;;;17.51;62.04
9969;BME280;5025;48.890;9.278;2022-09-09T07:25:50;98447.41;;;17.53;61.94
9969;BME280;5025;48.890;9.278;2022-09-09T07:28:16;98449.06;;;17.54;62.06
9969;BME280;5025;48.890;9.278;2022-09-09T07:30:42;98450.66;;;17.55;61.87
9969;BME280;5025;48.890;9.278;2022-09-09T07:33:08;98448.22;;;17.59;61.81
9969;BME280;5025;48.890;9.278;2022-09-09T07:35:35;98459.38;;;17.62;61.74
9969;BME280;5025;48.890;9.278;2022-09-09T07:38:03;98451.13;;;17.67;61.58
9969;BME280;5025;48.890;9.278;2022-09-09T07:40:33;98454.38;;;17.74;61.47
9969;BME280;5025;48.890;9.278;2022-09-09T07:42:59;98451.66;;;17.74;61.49
9969;BME280;5025;48.890;9.278;2022-09-09T07:45:24;98444.25;;;17.80;61.19
9969;BME280;5025;48.890;9.278;2022-09-09T07:47:50;98446.13;;;17.85;61.43
9969;BME280;5025;48.890;9.278;2022-09-09T07:50:15;98445.84;;;17.86;61.37
9969;BME280;5025;48.890;9.278;2022-09-09T07:52:41;98451.00;;;17.93;61.39
9969;BME280;5025;48.890;9.278;2022-09-09T07:55:06;98441.94;;;17.98;61.14
9969;BME280;5025;48.890;9.278;2022-09-09T07:57:31;98447.63;;;18.01;61.16
9969;BME280;5025;48.890;9.278;2022-09-09T07:59:57;98447.91;;;18.05;61.11
9969;BME280;5025;48.890;9.278;2022-09-09T08:02:23;98451.97;;;18.07;60.67
9969;BME280;5025;48.890;9.278;2022-09-09T08:04:49;98462.88;;;18.07;60.89
9969;BME280;5025;48.890;9.278;2022-09-09T08:07:14;98464.31;;;18.05;60.94
9969;BME280;5025;48.890;9.278;2022-09-09T08:09:41;98456.34;;;18.08;60.84
9969;BME280;5025;48.890;9.278;2022-09-09T08:12:07;98450.59;;;18.10;60.77
9969;BME280;5025;48.890;9.278;2022-09-09T08:14:34;98441.00;;;18.13;60.86
9969;BME280;5025;48.890;9.278;2022-09-09T08:16:59;98439.31;;;18.17;60.82
9969;BME280;5025;48.890;9.278;2022-09-09T08:19:26;98455.97;;;18.20;60.49
9969;BME280;5025;48.890;9.278;2022-09-09T08:21:54;98460.88;;;18.23;60.56
9969;BME280;5025;48.890;9.278;2022-09-09T08:24:19;98470.94;;;18.28;60.59
9969;BME280;5025;48.890;9.278;2022-09-09T08:26:47;98470.88;;;18.33;60.31
9969;BME280;5025;48.890;9.278;2022-09-09T08:29:14;98472.22;;;18.36;60.18
9969;BME280;5025;48.890;9.278;2022-09-09T08:31:45;98466.19;;;18.39;60.12
9969;BME280;5025;48.890;9.278;2022-09-09T08:34:12;98474.56;;;18.48;60.11
9969;BME280;5025;48.890;9.278;2022-09-09T08:36:42;98481.09;;;18.52;59.98
9969;BME280;5025;48.890;9.278;2022-09-09T08:39:09;98481.03;;;18.57;59.76
9969;BME280;5025;48.890;9.278;2022-09-09T08:42:04;98480.94;;;18.67;59.73
9969;BME280;5025;48.890;9.278;2022-09-09T08:47:06;98468.72;;;18.84;59.01
9969;BME280;5025;48.890;9.278;2022-09-09T08:55:18;98452.22;;;18.94;58.26
9969;BME280;5025;48.890;9.278;2022-09-09T08:57:48;98453.28;;;18.98;57.79
9969;BME280;5025;48.890;9.278;2022-09-09T09:00:14;98456.75;;;19.04;57.74
9969;BME280;5025;48.890;9.278;2022-09-09T09:02:48;98453.13;;;19.08;57.66
9969;BME280;5025;48.890;9.278;2022-09-09T09:08:10;98458.56;;;19.13;57.62
9969;BME280;5025;48.890;9.278;2022-09-09T09:10:53;98459.66;;;19.12;57.64
9969;BME280;5025;48.890;9.278;2022-09-09T09:15:57;98454.88;;;19.23;57.25
9969;BME280;5025;48.890;9.278;2022-09-09T09:18:26;98452.34;;;19.27;57.13
9969;BME280;5025;48.890;9.278;2022-09-09T09:23:25;98446.81;;;19.32;57.18
9969;BME280;5025;48.890;9.278;2022-09-09T09:25:55;98442.91;;;19.38;57.21
9969;BME280;5025;48.890;9.278;2022-09-09T09:28:29;98442.59;;;19.40;56.94
9969;BME280;5025;48.890;9.278;2022-09-09T09:31:03;98440.88;;;19.44;56.62
9969;BME280;5025;48.890;9.278;2022-09-09T09:36:11;98441.84;;;19.53;56.35
9969;BME280;5025;48.890;9.278;2022-09-09T09:38:53;98431.72;;;19.53;54.65
9969;BME280;5025;48.890;9.278;2022-09-09T09:43:56;98432.06;;;19.47;51.35
9969;BME280;5025;48.890;9.278;2022-09-09T09:46:23;98443.50;;;19.54;51.27
9969;BME280;5025;48.890;9.278;2022-09-09T09:49:04;98444.53;;;19.58;50.70
9969;BME280;5025;48.890;9.278;2022-09-09T09:51:33;98442.44;;;19.50;50.35
9969;BME280;5025;48.890;9.278;2022-09-09T09:54:33;98436.47;;;19.48;50.79
9969;BME280;5025;48.890;9.278;2022-09-09T09:57:11;98424.09;;;19.50;51.13
9969;BME280;5025;48.890;9.278;2022-09-09T09:59:37;98419.13;;;19.52;50.96
9969;BME280;5025;48.890;9.278;2022-09-09T10:02:24;98419.03;;;19.58;50.95
9969;BME280;5025;48.890;9.278;2022-09-09T10:05:12;98420.91;;;19.62;50.23
9969;BME280;5025;48.890;9.278;2022-09-09T10:07:37;98435.03;;;19.69;49.59
9969;BME280;5025;48.890;9.278;2022-09-09T10:10:04;98423.44;;;19.78;49.37
9969;BME280;5025;48.890;9.278;2022-09-09T10:26:18;98413.94;;;20.22;46.23
9969;BME280;5025;48.890;9.278;2022-09-09T10:37:02;98409.00;;;20.52;44.49
9969;BME280;5025;48.890;9.278;2022-09-09T10:39:36;98408.69;;;20.53;44.64
9969;BME280;5025;48.890;9.278;2022-09-09T10:42:12;98414.53;;;20.80;44.65
9969;BME280;5025;48.890;9.278;2022-09-09T10:55:00;98416.22;;;20.89;44.64
9969;BME280;5025;48.890;9.278;2022-09-09T10:57:32;98412.19;;;21.01;44.11
9969;BME280;5025;48.890;9.278;2022-09-09T11:00:05;98406.91;;;20.90;43.87
9969;BME280;5025;48.890;9.278;2022-09-09T11:02:33;98407.50;;;20.87;44.42
9969;BME280;5025;48.890;9.278;2022-09-09T11:07:59;98404.03;;;20.82;45.02
9969;BME280;5025;48.890;9.278;2022-09-09T11:10:40;98403.84;;;20.78;46.00
9969;BME280;5025;48.890;9.278;2022-09-09T11:13:17;98406.91;;;20.76;46.60
9969;BME280;5025;48.890;9.278;2022-09-09T11:15:46;98408.59;;;20.58;47.51
9969;BME280;5025;48.890;9.278;2022-09-09T11:18:20;98417.81;;;20.49;48.27
9969;BME280;5025;48.890;9.278;2022-09-09T11:20:54;98417.22;;;20.38;48.93
9969;BME280;5025;48.890;9.278;2022-09-09T11:23:39;98419.50;;;20.17;49.50
9969;BME280;5025;48.890;9.278;2022-09-09T11:26:07;98424.00;;;19.94;50.41
9969;BME280;5025;48.890;9.278;2022-09-09T11:31:44;98496.63;;;19.34;58.77
9969;BME280;5025;48.890;9.278;2022-09-09T11:40:08;98484.75;;;18.07;64.80
9969;BME280;5025;48.890;9.278;2022-09-09T11:42:35;98475.47;;;18.08;64.83
9969;BME280;5025;48.890;9.278;2022-09-09T11:45:30;98469.47;;;18.06;65.28
9969;BME280;5025;48.890;9.278;2022-09-09T11:47:57;98489.97;;;18.04;66.55
9969;BME280;5025;48.890;9.278;2022-09-09T11:52:49;98469.44;;;17.67;67.39
9969;BME280;5025;48.890;9.278;2022-09-09T11:55:26;98484.22;;;17.61;67.32
9969;BME280;5025;48.890;9.278;2022-09-09T12:00:43;98462.53;;;17.80;65.87
9969;BME280;5025;48.890;9.278;2022-09-09T12:03:39;98459.44;;;17.97;65.00
9969;BME280;5025;48.890;9.278;2022-09-09T12:06:30;98457.34;;;18.18;64.41
9969;BME280;5025;48.890;9.278;2022-09-09T12:09:16;98447.84;;;18.39;64.04
9969;BME280;5025;48.890;9.278;2022-09-09T12:11:42;98440.53;;;18.59;64.06
9969;BME280;5025;48.890;9.278;2022-09-09T12:19:40;98437.44;;;18.95;59.44
9969;BME280;5025;48.890;9.278;2022-09-09T12:22:23;98433.97;;;19.08;58.82
9969;BME280;5025;48.890;9.278;2022-09-09T12:33:23;98444.22;;;19.98;56.81
9969;BME280;5025;48.890;9.278;2022-09-09T12:35:55;98434.72;;;20.23;56.28
9969;BME280;5025;48.890;9.278;2022-09-09T12:38:30;98438.63;;;20.36;54.75
9969;BME280;5025;48.890;9.278;2022-09-09T12:40:57;98441.38;;;20.36;53.71
9969;BME280;5025;48.890;9.278;2022-09-09T12:43:25;98425.31;;;20.29;52.93
9969;BME280;5025;48.890;9.278;2022-09-09T12:46:00;98438.75;;;20.45;52.74
9969;BME280;5025;48.890;9.278;2022-09-09T12:48:36;98432.41;;;20.77;52.23
9969;BME280;5025;48.890;9.278;2022-09-09T12:51:03;98431.09;;;21.02;51.27
9969;BME280;5025;48.890;9.278;2022-09-09T12:53:36;98431.44;;;21.23;50.49
9969;BME280;5025;48.890;9.278;2022-09-09T12:56:05;98415.38;;;21.30;47.81
9969;BME280;5025;48.890;9.278;2022-09-09T12:58:32;98426.75;;;21.24;48.00
9969;BME280;5025;48.890;9.278;2022-09-09T13:00:59;98408.28;;;21.02;47.04
9969;BME280;5025;48.890;9.278;2022-09-09T13:03:25;98416.84;;;20.72;46.33
9969;BME280;5025;48.890;9.278;2022-09-09T13:05:52;98415.72;;;20.59;45.19
9969;BME280;5025;48.890;9.278;2022-09-09T13:08:18;98407.75;;;20.44;45.79
9969;BME280;5025;48.890;9.278;2022-09-09T13:10:51;98411.13;;;20.41;45.94
9969;BME280;5025;48.890;9.278;2022-09-09T13:13:22;98401.47;;;20.30;46.83
9969;BME280;5025;48.890;9.278;2022-09-09T13:15:54;98410.66;;;20.20;46.86
9969;BME280;5025;48.890;9.278;2022-09-09T13:18:23;98405.88;;;20.12;48.53
9969;BME280;5025;48.890;9.278;2022-09-09T13:20:49;98391.53;;;20.01;48.11
9969;BME280;5025;48.890;9.278;2022-09-09T13:23:16;98404.66;;;20.04;48.78
9969;BME280;5025;48.890;9.278;2022-09-09T13:25:53;98394.59;;;19.99;48.42
9969;BME280;5025;48.890;9.278;2022-09-09T13:28:22;98396.91;;;20.06;49.41
9969;BME280;5025;48.890;9.278;2022-09-09T13:30:57;98388.63;;;20.11;49.00
9969;BME280;5025;48.890;9.278;2022-09-09T13:33:29;98400.69;;;20.10;49.25
9969;BME280;5025;48.890;9.278;2022-09-09T13:36:09;98387.28;;;20.09;48.21
9969;BME280;5025;48.890;9.278;2022-09-09T13:38:38;98381.41;;;20.15;49.02
9969;BME280;5025;48.890;9.278;2022-09-09T13:41:09;98395.44;;;20.28;47.38
9969;BME280;5025;48.890;9.278;2022-09-09T13:43:53;98389.78;;;20.38;46.80
9969;BME280;5025;48.890;9.278;2022-09-09T13:46:40;98374.75;;;20.49;46.28
9969;BME280;5025;48.890;9.278;2022-09-09T13:54:09;98359.53;;;20.71;45.71
9969;BME280;5025;48.890;9.278;2022-09-09T13:56:37;98385.38;;;20.70;44.60
9969;BME280;5025;48.890;9.278;2022-09-09T13:59:04;98350.63;;;20.65;44.77
9969;BME280;5025;48.890;9.278;2022-09-09T14:01:30;98357.41;;;20.68;45.39
9969;BME280;5025;48.890;9.278;2022-09-09T14:03:56;98356.69;;;20.62;44.45
9969;BME280;5025;48.890;9.278;2022-09-09T14:06:22;98366.47;;;20.68;43.82
9969;BME280;5025;48.890;9.278;2022-09-09T14:08:49;98367.34;;;20.64;44.06
9969;BME280;5025;48.890;9.278;2022-09-09T14:11:15;98362.38;;;20.66;44.21
9969;BME280;5025;48.890;9.278;2022-09-09T14:13:41;98364.53;;;20.69;43.77
9969;BME280;5025;48.890;9.278;2022-09-09T14:16:06;98379.13;;;21.06;43.71
9969;BME280;5025;48.890;9.278;2022-09-09T14:18:31;98355.31;;;21.38;42.54
9969;BME280;5025;48.890;9.278;2022-09-09T14:20:57;98354.59;;;21.46;41.98
9969;BME280;5025;48.890;9.278;2022-09-09T14:23:24;98348.44;;;21.63;41.90
9969;BME280;5025;48.890;9.278;2022-09-09T14:25:50;98337.34;;;21.99;40.81
9969;BME280;5025;48.890;9.278;2022-09-09T14:28:15;98356.19;;;22.15;40.90
9969;BME280;5025;48.890;9.278;2022-09-09T14:30:42;98332.69;;;22.40;39.86
9969;BME280;5025;48.890;9.278;2022-09-09T14:33:10;98334.81;;;23.01;37.88
9969;BME280;5025;48.890;9.278;2022-09-09T14:35:36;98335.44;;;23.76;37.03
9969;BME280;5025;48.890;9.278;2022-09-09T14:38:03;98340.19;;;24.32;36.08
9969;BME280;5025;48.890;9.278;2022-09-09T14:40:28;98341.13;;;23.80;35.87
9969;BME280;5025;48.890;9.278;2022-09-09T14:42:53;98347.16;;;23.56;36.51
9969;BME280;5025;48.890;9.278;2022-09-09T14:45:19;98335.25;;;23.99;35.88
9969;BME280;5025;48.890;9.278;2022-09-09T14:47:46;98341.44;;;24.43;35.28
9969;BME280;5025;48.890;9.278;2022-09-09T14:50:11;98341.72;;;25.10;34.94
9969;BME280;5025;48.890;9.278;2022-09-09T14:52:37;98358.78;;;24.91;34.61
9969;BME280;5025;48.890;9.278;2022-09-09T14:55:03;98341.06;;;24.53;34.40
9969;BME280;5025;48.890;9.278;2022-09-09T14:57:28;98335.03;;;24.90;34.38
9969;BME280;5025;48.890;9.278;2022-09-09T14:59:54;98336.75;;;24.74;33.50
9969;BME280;5025;48.890;9.278;2022-09-09T15:02:19;98343.59;;;24.29;34.41
9969;BME280;5025;48.890;9.278;2022-09-09T15:04:44;98354.09;;;23.79;35.35
9969;BME280;5025;48.890;9.278;2022-09-09T15:07:10;98352.19;;;23.10;36.42
9969;BME280;5025;48.890;9.278;2022-09-09T15:09:36;98346.56;;;22.75;37.60
9969;BME280;5025;48.890;9.278;2022-09-09T15:12:02;98337.59;;;22.52;38.36
9969;BME280;5025;48.890;9.278;2022-09-09T15:14:27;98357.59;;;22.35;38.68
9969;BME280;5025;48.890;9.278;2022-09-09T15:16:53;98359.56;;;22.12;39.60
9969;BME280;5025;48.890;9.278;2022-09-09T15:19:18;98357.44;;;22.09;39.29
9969;BME280;5025;48.890;9.278;2022-09-09T15:21:44;98362.69;;;22.19;39.10
9969;BME280;5025;48.890;9.278;2022-09-09T15:24:09;98353.56;;;22.41;38.63
9969;BME280;5025;48.890;9.278;2022-09-09T15:26:36;98356.38;;;22.59;38.18
9969;BME280;5025;48.890;9.278;2022-09-09T15:29:03;98362.22;;;22.26;38.23
9969;BME280;5025;48.890;9.278;2022-09-09T15:31:30;98351.59;;;22.01;39.43
9969;BME280;5025;48.890;9.278;2022-09-09T15:34:04;98361.97;;;21.82;40.62
9969;BME280;5025;48.890;9.278;2022-09-09T15:36:32;98357.63;;;21.58;41.18
9969;BME280;5025;48.890;9.278;2022-09-09T15:38:59;98352.06;;;21.49;41.51
9969;BME280;5025;48.890;9.278;2022-09-09T15:41:25;98347.78;;;21.43;41.28
9969;BME280;5025;48.890;9.278;2022-09-09T15:43:52;98350.75;;;21.33;41.51
9969;BME280;5025;48.890;9.278;2022-09-09T15:46:25;98352.91;;;21.22;41.38